sensor_id;sensor_type;location;lat;lon;timestamp;P1;durP1;ratioP1;P2;durP2;ratioP2
47866;SDS011;33628;50.806;11.586;2023-02-11T00:00:12;51.13;;;23.55;;
47866;SDS011;33628;50.806;11.586;2023-02-11T00:02:40;52.88;;;22.67;;
47866;SDS011;33628;50.806;11.586;2023-02-11T00:05:08;49.53;;;22.70;;
47866;SDS011;33628;50.806;11.586;2023-02-11T00:07:35;55.40;;;24.55;;
47866;SDS011;33628;50.806;11.586;2023-02-11T00:10:02;62.25;;;25.08;;
47866;SDS011;33628;50.806;11.586;2023-02-11T00:12:31;46.47;;;20.63;;
47866;SDS011;33628;50.806;11.586;2023-02-11T00:14:57;47.95;;;21.75;;
47866;SDS011;33628;50.806;11.586;2023-02-11T00:17:24;46.35;;;20.42;;
47866;SDS011;33628;50.806;11.586;2023-02-11T00:19:51;49.17;;;21.92;;
47866;SDS011;33628;50.806;11.586;2023-02-11T00:22:19;51.78;;;23.00;;
47866;SDS011;33628;50.806;11.586;2023-02-11T00:24:46;50.88;;;22.63;;
47866;SDS011;33628;50.806;11.586;2023-02-11T00:27:12;45.70;;;21.45;;
47866;SDS011;33628;50.806;11.586;2023-02-11T00:29:39;44.67;;;20.88;;
47866;SDS011;33628;50.806;11.586;2023-02-11T00:32:06;52.67;;;22.88;;
47866;SDS011;33628;50.806;11.586;2023-02-11T00:34:33;45.50;;;22.00;;
47866;SDS011;33628;50.806;11.586;2023-02-11T00:37:01;52.83;;;22.63;;
47866;SDS011;33628;50.806;11.586;2023-02-11T00:39:30;44.25;;;20.52;;
47866;SDS011;33628;50.806;11.586;2023-02-11T00:41:57;48.13;;;21.83;;
47866;SDS011;33628;50.806;11.586;2023-02-11T00:44:23;43.55;;;21.20;;
47866;SDS011;33628;50.806;11.586;2023-02-11T00:46:50;45.67;;;20.10;;
47866;SDS011;33628;50.806;11.586;2023-02-11T00:49:17;43.28;;;21.05;;
47866;SDS011;33628;50.806;11.586;2023-02-11T00:51:43;44.40;;;21.05;;
47866;SDS011;33628;50.806;11.586;2023-02-11T00:54:11;49.17;;;22.80;;
47866;SDS011;33628;50.806;11.586;2023-02-11T00:56:39;48.28;;;24.27;;
47866;SDS011;33628;50.806;11.586;2023-02-11T00:59:06;45.72;;;21.80;;
47866;SDS011;33628;50.806;11.586;2023-02-11T01:01:33;48.38;;;23.75;;
47866;SDS011;33628;50.806;11.586;2023-02-11T01:04:00;44.88;;;21.90;;
47866;SDS011;33628;50.806;11.586;2023-02-11T01:06:27;49.25;;;21.90;;
47866;SDS011;33628;50.806;11.586;2023-02-11T01:08:54;53.40;;;26.08;;
47866;SDS011;33628;50.806;11.586;2023-02-11T01:11:20;53.35;;;24.30;;
47866;SDS011;33628;50.806;11.586;2023-02-11T01:13:49;52.00;;;26.17;;
47866;SDS011;33628;50.806;11.586;2023-02-11T01:16:16;53.80;;;23.15;;
47866;SDS011;33628;50.806;11.586;2023-02-11T01:18:44;45.65;;;21.75;;
47866;SDS011;33628;50.806;11.586;2023-02-11T01:21:11;48.47;;;21.35;;
47866;SDS011;33628;50.806;11.586;2023-02-11T01:23:38;44.63;;;21.42;;
47866;SDS011;33628;50.806;11.586;2023-02-11T01:26:04;47.03;;;22.75;;
47866;SDS011;33628;50.806;11.586;2023-02-11T01:28:31;43.83;;;21.60;;
47866;SDS011;33628;50.806;11.586;2023-02-11T01:31:00;45.10;;;20.70;;
47866;SDS011;33628;50.806;11.586;2023-02-11T01:33:27;46.53;;;21.73;;
47866;SDS011;33628;50.806;11.586;2023-02-11T01:35:54;43.72;;;20.83;;
47866;SDS011;33628;50.806;11.586;2023-02-11T01:38:22;42.13;;;20.48;;
47866;SDS011;33628;50.806;11.586;2023-02-11T01:40:52;43.40;;;21.33;;
47866;SDS011;33628;50.806;11.586;2023-02-11T01:43:21;41.55;;;20.30;;
47866;SDS011;33628;50.806;11.586;2023-02-11T01:48:58;42.72;;;20.00;;
47866;SDS011;33628;50.806;11.586;2023-02-11T01:51:27;42.28;;;21.35;;
47866;SDS011;33628;50.806;11.586;2023-02-11T01:53:57;39.75;;;19.90;;
47866;SDS011;33628;50.806;11.586;2023-02-11T01:56:43;44.05;;;21.45;;
47866;SDS011;33628;50.806;11.586;2023-02-11T01:59:32;50.42;;;21.27;;
47866;SDS011;33628;50.806;11.586;2023-02-11T02:02:04;42.63;;;20.55;;
47866;SDS011;33628;50.806;11.586;2023-02-11T02:04:35;42.95;;;21.75;;
47866;SDS011;33628;50.806;11.586;2023-02-11T02:07:05;42.33;;;21.08;;
47866;SDS011;33628;50.806;11.586;2023-02-11T02:09:35;44.30;;;21.67;;
47866;SDS011;33628;50.806;11.586;2023-02-11T02:45:52;40.58;;;19.90;;
47866;SDS011;33628;50.806;11.586;2023-02-11T02:48:23;46.50;;;22.40;;
47866;SDS011;33628;50.806;11.586;2023-02-11T02:50:52;43.80;;;20.77;;
47866;SDS011;33628;50.806;11.586;2023-02-11T02:53:28;45.22;;;22.00;;
47866;SDS011;33628;50.806;11.586;2023-02-11T02:56:01;44.85;;;21.55;;
47866;SDS011;33628;50.806;11.586;2023-02-11T02:58:40;52.13;;;21.13;;
47866;SDS011;33628;50.806;11.586;2023-02-11T03:01:24;51.63;;;23.13;;
47866;SDS011;33628;50.806;11.586;2023-02-11T03:03:57;43.72;;;21.70;;
47866;SDS011;33628;50.806;11.586;2023-02-11T03:06:29;43.25;;;21.58;;
47866;SDS011;33628;50.806;11.586;2023-02-11T03:08:58;45.63;;;20.40;;
47866;SDS011;33628;50.806;11.586;2023-02-11T03:11:29;51.35;;;22.83;;
47866;SDS011;33628;50.806;11.586;2023-02-11T03:13:55;43.50;;;21.95;;
47866;SDS011;33628;50.806;11.586;2023-02-11T03:16:25;47.00;;;21.70;;
47866;SDS011;33628;50.806;11.586;2023-02-11T03:18:54;43.63;;;20.88;;
47866;SDS011;33628;50.806;11.586;2023-02-11T03:21:22;45.40;;;20.98;;
47866;SDS011;33628;50.806;11.586;2023-02-11T03:23:51;40.55;;;20.30;;
47866;SDS011;33628;50.806;11.586;2023-02-11T03:26:22;49.47;;;22.38;;
47866;SDS011;33628;50.806;11.586;2023-02-11T03:28:52;45.97;;;20.63;;
47866;SDS011;33628;50.806;11.586;2023-02-11T03:31:24;43.42;;;21.55;;
47866;SDS011;33628;50.806;11.586;2023-02-11T03:33:56;43.72;;;21.80;;
47866;SDS011;33628;50.806;11.586;2023-02-11T03:36:27;44.83;;;22.58;;
47866;SDS011;33628;50.806;11.586;2023-02-11T03:38:59;43.15;;;20.80;;
47866;SDS011;33628;50.806;11.586;2023-02-11T03:41:26;42.53;;;18.90;;
47866;SDS011;33628;50.806;11.586;2023-02-11T03:43:56;41.22;;;20.33;;
47866;SDS011;33628;50.806;11.586;2023-02-11T03:46:29;43.67;;;20.50;;
47866;SDS011;33628;50.806;11.586;2023-02-11T03:49:00;35.47;;;19.75;;
47866;SDS011;33628;50.806;11.586;2023-02-11T03:51:28;45.15;;;19.75;;
47866;SDS011;33628;50.806;11.586;2023-02-11T03:53:56;41.53;;;19.70;;
47866;SDS011;33628;50.806;11.586;2023-02-11T03:56:26;42.05;;;19.92;;
47866;SDS011;33628;50.806;11.586;2023-02-11T03:58:55;43.90;;;20.42;;
47866;SDS011;33628;50.806;11.586;2023-02-11T04:01:24;42.38;;;20.73;;
47866;SDS011;33628;50.806;11.586;2023-02-11T04:03:52;44.45;;;20.48;;
47866;SDS011;33628;50.806;11.586;2023-02-11T04:06:19;39.50;;;19.30;;
47866;SDS011;33628;50.806;11.586;2023-02-11T04:08:45;37.55;;;19.38;;
47866;SDS011;33628;50.806;11.586;2023-02-11T04:11:12;46.75;;;20.35;;
47866;SDS011;33628;50.806;11.586;2023-02-11T04:13:39;40.83;;;20.10;;
47866;SDS011;33628;50.806;11.586;2023-02-11T04:16:05;41.38;;;20.65;;
47866;SDS011;33628;50.806;11.586;2023-02-11T04:18:32;42.25;;;20.83;;
47866;SDS011;33628;50.806;11.586;2023-02-11T04:21:00;40.65;;;20.13;;
47866;SDS011;33628;50.806;11.586;2023-02-11T04:23:26;41.33;;;18.83;;
47866;SDS011;33628;50.806;11.586;2023-02-11T04:25:53;39.08;;;20.13;;
47866;SDS011;33628;50.806;11.586;2023-02-11T04:28:20;44.03;;;21.17;;
47866;SDS011;33628;50.806;11.586;2023-02-11T04:30:47;39.90;;;20.05;;
47866;SDS011;33628;50.806;11.586;2023-02-11T04:33:14;41.40;;;20.13;;
47866;SDS011;33628;50.806;11.586;2023-02-11T04:35:41;39.55;;;19.35;;
47866;SDS011;33628;50.806;11.586;2023-02-11T04:38:08;41.60;;;20.92;;
47866;SDS011;33628;50.806;11.586;2023-02-11T04:40:35;44.22;;;20.80;;
47866;SDS011;33628;50.806;11.586;2023-02-11T04:43:02;40.17;;;19.15;;
47866;SDS011;33628;50.806;11.586;2023-02-11T04:45:28;38.22;;;19.38;;
47866;SDS011;33628;50.806;11.586;2023-02-11T04:47:55;38.20;;;19.40;;
47866;SDS011;33628;50.806;11.586;2023-02-11T04:50:21;41.58;;;19.73;;
47866;SDS011;33628;50.806;11.586;2023-02-11T04:52:48;40.20;;;19.27;;
47866;SDS011;33628;50.806;11.586;2023-02-11T04:55:16;43.55;;;19.75;;
47866;SDS011;33628;50.806;11.586;2023-02-11T04:57:43;41.20;;;19.63;;
47866;SDS011;33628;50.806;11.586;2023-02-11T05:00:10;39.42;;;20.15;;
47866;SDS011;33628;50.806;11.586;2023-02-11T05:02:37;37.95;;;18.40;;
47866;SDS011;33628;50.806;11.586;2023-02-11T05:05:04;40.05;;;19.13;;
47866;SDS011;33628;50.806;11.586;2023-02-11T05:07:31;41.85;;;20.15;;
47866;SDS011;33628;50.806;11.586;2023-02-11T05:09:58;44.95;;;21.02;;
47866;SDS011;33628;50.806;11.586;2023-02-11T05:12:26;45.53;;;22.33;;
47866;SDS011;33628;50.806;11.586;2023-02-11T05:14:52;51.63;;;25.33;;
47866;SDS011;33628;50.806;11.586;2023-02-11T05:17:19;46.22;;;25.98;;
47866;SDS011;33628;50.806;11.586;2023-02-11T05:19:46;44.72;;;23.80;;
47866;SDS011;33628;50.806;11.586;2023-02-11T05:22:12;43.08;;;21.20;;
47866;SDS011;33628;50.806;11.586;2023-02-11T05:24:39;43.00;;;22.02;;
47866;SDS011;33628;50.806;11.586;2023-02-11T05:27:06;42.53;;;20.30;;
47866;SDS011;33628;50.806;11.586;2023-02-11T05:29:34;42.40;;;20.55;;
47866;SDS011;33628;50.806;11.586;2023-02-11T05:32:00;40.95;;;21.40;;
47866;SDS011;33628;50.806;11.586;2023-02-11T05:34:27;34.83;;;19.15;;
47866;SDS011;33628;50.806;11.586;2023-02-11T05:36:53;38.63;;;18.52;;
47866;SDS011;33628;50.806;11.586;2023-02-11T05:39:20;40.53;;;18.58;;
47866;SDS011;33628;50.806;11.586;2023-02-11T05:41:46;36.92;;;19.42;;
47866;SDS011;33628;50.806;11.586;2023-02-11T05:44:13;42.00;;;19.58;;
47866;SDS011;33628;50.806;11.586;2023-02-11T05:46:41;39.25;;;19.25;;
47866;SDS011;33628;50.806;11.586;2023-02-11T05:49:08;37.28;;;19.33;;
47866;SDS011;33628;50.806;11.586;2023-02-11T05:51:34;40.65;;;18.88;;
47866;SDS011;33628;50.806;11.586;2023-02-11T05:54:01;39.15;;;19.77;;
47866;SDS011;33628;50.806;11.586;2023-02-11T05:56:28;38.10;;;18.75;;
47866;SDS011;33628;50.806;11.586;2023-02-11T05:58:54;39.70;;;19.88;;
47866;SDS011;33628;50.806;11.586;2023-02-11T06:01:23;46.05;;;21.95;;
47866;SDS011;33628;50.806;11.586;2023-02-11T06:03:51;40.35;;;20.63;;
47866;SDS011;33628;50.806;11.586;2023-02-11T06:06:17;45.22;;;20.42;;
47866;SDS011;33628;50.806;11.586;2023-02-11T06:08:44;39.50;;;19.30;;
47866;SDS011;33628;50.806;11.586;2023-02-11T06:11:12;37.95;;;19.15;;
47866;SDS011;33628;50.806;11.586;2023-02-11T06:13:39;35.38;;;18.65;;
47866;SDS011;33628;50.806;11.586;2023-02-11T06:16:06;36.97;;;19.83;;
47866;SDS011;33628;50.806;11.586;2023-02-11T06:18:32;41.38;;;19.42;;
47866;SDS011;33628;50.806;11.586;2023-02-11T06:21:00;34.20;;;17.60;;
47866;SDS011;33628;50.806;11.586;2023-02-11T06:23:31;38.25;;;19.13;;
47866;SDS011;33628;50.806;11.586;2023-02-11T06:26:00;38.55;;;19.33;;
47866;SDS011;33628;50.806;11.586;2023-02-11T06:28:27;34.08;;;18.52;;
47866;SDS011;33628;50.806;11.586;2023-02-11T06:30:55;37.60;;;18.38;;
47866;SDS011;33628;50.806;11.586;2023-02-11T06:33:22;42.92;;;19.88;;
47866;SDS011;33628;50.806;11.586;2023-02-11T06:35:49;37.45;;;19.73;;
47866;SDS011;33628;50.806;11.586;2023-02-11T06:38:17;39.85;;;20.27;;
47866;SDS011;33628;50.806;11.586;2023-02-11T06:40:48;42.75;;;20.45;;
47866;SDS011;33628;50.806;11.586;2023-02-11T06:43:15;43.22;;;20.65;;
47866;SDS011;33628;50.806;11.586;2023-02-11T06:45:43;45.80;;;20.48;;
47866;SDS011;33628;50.806;11.586;2023-02-11T06:48:09;41.63;;;19.33;;
47866;SDS011;33628;50.806;11.586;2023-02-11T06:50:36;39.25;;;19.75;;
47866;SDS011;33628;50.806;11.586;2023-02-11T06:53:03;43.10;;;20.33;;
47866;SDS011;33628;50.806;11.586;2023-02-11T06:55:33;40.08;;;19.30;;
47866;SDS011;33628;50.806;11.586;2023-02-11T06:58:00;40.67;;;20.30;;
47866;SDS011;33628;50.806;11.586;2023-02-11T07:00:27;33.65;;;19.42;;
47866;SDS011;33628;50.806;11.586;2023-02-11T07:02:54;51.45;;;21.70;;
47866;SDS011;33628;50.806;11.586;2023-02-11T07:05:21;47.17;;;23.40;;
47866;SDS011;33628;50.806;11.586;2023-02-11T07:07:47;41.72;;;21.13;;
47866;SDS011;33628;50.806;11.586;2023-02-11T07:10:14;41.95;;;20.88;;
47866;SDS011;33628;50.806;11.586;2023-02-11T07:12:42;47.63;;;22.15;;
47866;SDS011;33628;50.806;11.586;2023-02-11T07:15:11;50.60;;;23.13;;
47866;SDS011;33628;50.806;11.586;2023-02-11T07:17:38;44.15;;;22.67;;
47866;SDS011;33628;50.806;11.586;2023-02-11T07:20:05;45.00;;;21.98;;
47866;SDS011;33628;50.806;11.586;2023-02-11T07:22:32;42.25;;;23.05;;
47866;SDS011;33628;50.806;11.586;2023-02-11T07:24:59;47.40;;;22.85;;
47866;SDS011;33628;50.806;11.586;2023-02-11T07:27:26;43.92;;;22.42;;
47866;SDS011;33628;50.806;11.586;2023-02-11T07:29:54;43.92;;;21.65;;
47866;SDS011;33628;50.806;11.586;2023-02-11T07:32:21;43.50;;;21.58;;
47866;SDS011;33628;50.806;11.586;2023-02-11T07:34:47;42.95;;;22.50;;
47866;SDS011;33628;50.806;11.586;2023-02-11T07:37:14;45.92;;;22.92;;
47866;SDS011;33628;50.806;11.586;2023-02-11T07:39:41;44.90;;;22.08;;
47866;SDS011;33628;50.806;11.586;2023-02-11T07:42:07;46.30;;;24.05;;
47866;SDS011;33628;50.806;11.586;2023-02-11T07:44:34;45.65;;;22.70;;
47866;SDS011;33628;50.806;11.586;2023-02-11T07:47:03;44.58;;;22.85;;
47866;SDS011;33628;50.806;11.586;2023-02-11T07:49:30;44.40;;;22.25;;
47866;SDS011;33628;50.806;11.586;2023-02-11T07:51:56;48.05;;;22.98;;
47866;SDS011;33628;50.806;11.586;2023-02-11T07:54:23;47.90;;;22.88;;
47866;SDS011;33628;50.806;11.586;2023-02-11T07:56:50;42.42;;;22.92;;
47866;SDS011;33628;50.806;11.586;2023-02-11T07:59:17;51.05;;;24.45;;
47866;SDS011;33628;50.806;11.586;2023-02-11T08:01:44;46.35;;;24.27;;
47866;SDS011;33628;50.806;11.586;2023-02-11T08:04:12;61.92;;;34.95;;
47866;SDS011;33628;50.806;11.586;2023-02-11T08:06:39;59.53;;;31.10;;
47866;SDS011;33628;50.806;11.586;2023-02-11T08:09:08;47.55;;;26.35;;
47866;SDS011;33628;50.806;11.586;2023-02-11T08:11:36;51.50;;;25.60;;
47866;SDS011;33628;50.806;11.586;2023-02-11T08:14:03;48.40;;;25.30;;
47866;SDS011;33628;50.806;11.586;2023-02-11T08:16:30;48.22;;;25.33;;
47866;SDS011;33628;50.806;11.586;2023-02-11T08:18:58;52.08;;;26.00;;
47866;SDS011;33628;50.806;11.586;2023-02-11T08:21:27;50.67;;;26.13;;
47866;SDS011;33628;50.806;11.586;2023-02-11T08:23:54;55.20;;;26.55;;
47866;SDS011;33628;50.806;11.586;2023-02-11T08:26:22;57.22;;;29.15;;
47866;SDS011;33628;50.806;11.586;2023-02-11T08:28:50;59.90;;;31.23;;
47866;SDS011;33628;50.806;11.586;2023-02-11T08:31:19;57.17;;;29.25;;
47866;SDS011;33628;50.806;11.586;2023-02-11T08:33:46;53.45;;;27.25;;
47866;SDS011;33628;50.806;11.586;2023-02-11T08:36:14;56.20;;;28.83;;
47866;SDS011;33628;50.806;11.586;2023-02-11T08:38:43;64.80;;;27.38;;
47866;SDS011;33628;50.806;11.586;2023-02-11T08:41:10;54.53;;;26.52;;
47866;SDS011;33628;50.806;11.586;2023-02-11T08:43:39;53.47;;;27.05;;
47866;SDS011;33628;50.806;11.586;2023-02-11T08:46:10;128.60;;;56.22;;
47866;SDS011;33628;50.806;11.586;2023-02-11T08:48:38;88.78;;;41.50;;
47866;SDS011;33628;50.806;11.586;2023-02-11T08:51:05;85.88;;;39.47;;
47866;SDS011;33628;50.806;11.586;2023-02-11T08:53:33;75.38;;;35.72;;
47866;SDS011;33628;50.806;11.586;2023-02-11T08:56:01;70.53;;;35.85;;
47866;SDS011;33628;50.806;11.586;2023-02-11T08:58:28;84.38;;;38.30;;
47866;SDS011;33628;50.806;11.586;2023-02-11T09:00:55;61.40;;;29.25;;
47866;SDS011;33628;50.806;11.586;2023-02-11T09:03:22;57.22;;;27.23;;
47866;SDS011;33628;50.806;11.586;2023-02-11T09:05:48;65.43;;;30.98;;
47866;SDS011;33628;50.806;11.586;2023-02-11T09:08:17;52.97;;;27.10;;
47866;SDS011;33628;50.806;11.586;2023-02-11T09:10:45;62.47;;;30.20;;
47866;SDS011;33628;50.806;11.586;2023-02-11T09:13:13;59.83;;;30.27;;
47866;SDS011;33628;50.806;11.586;2023-02-11T09:15:43;79.30;;;31.52;;
47866;SDS011;33628;50.806;11.586;2023-02-11T09:18:10;61.22;;;29.38;;
47866;SDS011;33628;50.806;11.586;2023-02-11T09:20:36;86.68;;;34.20;;
47866;SDS011;33628;50.806;11.586;2023-02-11T09:23:03;64.75;;;31.02;;
47866;SDS011;33628;50.806;11.586;2023-02-11T09:25:30;62.83;;;30.73;;
47866;SDS011;33628;50.806;11.586;2023-02-11T09:27:56;61.25;;;28.13;;
47866;SDS011;33628;50.806;11.586;2023-02-11T09:30:24;67.80;;;29.77;;
47866;SDS011;33628;50.806;11.586;2023-02-11T09:32:51;53.65;;;26.35;;
47866;SDS011;33628;50.806;11.586;2023-02-11T09:35:17;50.45;;;27.00;;
47866;SDS011;33628;50.806;11.586;2023-02-11T09:37:44;78.35;;;34.03;;
47866;SDS011;33628;50.806;11.586;2023-02-11T09:40:11;79.25;;;38.50;;
47866;SDS011;33628;50.806;11.586;2023-02-11T09:42:39;51.08;;;26.95;;
47866;SDS011;33628;50.806;11.586;2023-02-11T09:45:12;51.78;;;25.52;;
47866;SDS011;33628;50.806;11.586;2023-02-11T09:47:46;54.47;;;26.45;;
47866;SDS011;33628;50.806;11.586;2023-02-11T09:50:15;48.75;;;24.90;;
47866;SDS011;33628;50.806;11.586;2023-02-11T09:52:45;53.03;;;25.70;;
47866;SDS011;33628;50.806;11.586;2023-02-11T09:55:16;50.30;;;26.70;;
47866;SDS011;33628;50.806;11.586;2023-02-11T09:57:45;54.53;;;27.75;;
47866;SDS011;33628;50.806;11.586;2023-02-11T10:00:17;49.80;;;24.35;;
47866;SDS011;33628;50.806;11.586;2023-02-11T10:02:53;47.47;;;25.17;;
47866;SDS011;33628;50.806;11.586;2023-02-11T10:05:27;46.28;;;23.95;;
47866;SDS011;33628;50.806;11.586;2023-02-11T10:08:00;44.58;;;24.80;;
47866;SDS011;33628;50.806;11.586;2023-02-11T10:10:34;44.33;;;22.98;;
47866;SDS011;33628;50.806;11.586;2023-02-11T10:13:15;50.88;;;24.52;;
47866;SDS011;33628;50.806;11.586;2023-02-11T10:15:57;44.42;;;22.92;;
47866;SDS011;33628;50.806;11.586;2023-02-11T10:18:45;39.72;;;22.65;;
47866;SDS011;33628;50.806;11.586;2023-02-11T10:21:22;40.00;;;22.98;;
47866;SDS011;33628;50.806;11.586;2023-02-11T10:23:54;43.83;;;23.50;;
47866;SDS011;33628;50.806;11.586;2023-02-11T10:26:25;42.90;;;23.95;;
47866;SDS011;33628;50.806;11.586;2023-02-11T10:28:55;43.70;;;24.80;;
47866;SDS011;33628;50.806;11.586;2023-02-11T10:31:26;41.28;;;21.42;;
47866;SDS011;33628;50.806;11.586;2023-02-11T10:34:00;39.00;;;21.67;;
47866;SDS011;33628;50.806;11.586;2023-02-11T10:36:29;41.25;;;20.77;;
47866;SDS011;33628;50.806;11.586;2023-02-11T10:38:58;36.58;;;20.83;;
47866;SDS011;33628;50.806;11.586;2023-02-11T10:41:26;39.85;;;22.00;;
47866;SDS011;33628;50.806;11.586;2023-02-11T10:43:57;37.47;;;20.20;;
47866;SDS011;33628;50.806;11.586;2023-02-11T10:46:26;41.60;;;22.15;;
47866;SDS011;33628;50.806;11.586;2023-02-11T10:48:56;35.42;;;19.88;;
47866;SDS011;33628;50.806;11.586;2023-02-11T10:51:25;38.53;;;21.08;;
47866;SDS011;33628;50.806;11.586;2023-02-11T10:54:08;43.17;;;21.58;;
47866;SDS011;33628;50.806;11.586;2023-02-11T10:56:45;34.35;;;19.80;;
47866;SDS011;33628;50.806;11.586;2023-02-11T10:59:16;38.15;;;20.90;;
47866;SDS011;33628;50.806;11.586;2023-02-11T11:01:47;35.78;;;19.45;;
47866;SDS011;33628;50.806;11.586;2023-02-11T11:04:31;37.47;;;20.48;;
47866;SDS011;33628;50.806;11.586;2023-02-11T11:09:57;30.17;;;17.08;;
47866;SDS011;33628;50.806;11.586;2023-02-11T11:12:29;33.20;;;18.90;;
47866;SDS011;33628;50.806;11.586;2023-02-11T11:15:02;34.78;;;19.15;;
47866;SDS011;33628;50.806;11.586;2023-02-11T11:17:41;33.33;;;18.00;;
47866;SDS011;33628;50.806;11.586;2023-02-11T11:20:12;29.50;;;16.50;;
47866;SDS011;33628;50.806;11.586;2023-02-11T11:22:42;33.55;;;17.63;;
47866;SDS011;33628;50.806;11.586;2023-02-11T11:25:20;31.52;;;17.77;;
47866;SDS011;33628;50.806;11.586;2023-02-11T11:27:48;31.65;;;18.40;;
47866;SDS011;33628;50.806;11.586;2023-02-11T11:30:15;30.00;;;16.25;;
47866;SDS011;33628;50.806;11.586;2023-02-11T11:32:42;33.63;;;18.83;;
47866;SDS011;33628;50.806;11.586;2023-02-11T11:35:19;35.03;;;17.98;;
47866;SDS011;33628;50.806;11.586;2023-02-11T11:37:52;35.35;;;16.75;;
47866;SDS011;33628;50.806;11.586;2023-02-11T11:40:22;29.02;;;16.77;;
47866;SDS011;33628;50.806;11.586;2023-02-11T11:43:14;31.30;;;17.35;;
47866;SDS011;33628;50.806;11.586;2023-02-11T11:45:53;30.52;;;16.33;;
47866;SDS011;33628;50.806;11.586;2023-02-11T11:48:21;30.80;;;17.17;;
47866;SDS011;33628;50.806;11.586;2023-02-11T11:50:51;31.13;;;16.92;;
47866;SDS011;33628;50.806;11.586;2023-02-11T11:53:22;32.03;;;17.13;;
47866;SDS011;33628;50.806;11.586;2023-02-11T11:55:55;32.00;;;19.73;;
47866;SDS011;33628;50.806;11.586;2023-02-11T11:58:26;27.75;;;15.50;;
47866;SDS011;33628;50.806;11.586;2023-02-11T12:00:56;31.60;;;16.88;;
47866;SDS011;33628;50.806;11.586;2023-02-11T12:03:42;29.48;;;16.58;;
47866;SDS011;33628;50.806;11.586;2023-02-11T12:06:44;29.92;;;16.80;;
47866;SDS011;33628;50.806;11.586;2023-02-11T12:09:21;25.35;;;15.43;;
47866;SDS011;33628;50.806;11.586;2023-02-11T12:11:56;24.13;;;15.15;;
47866;SDS011;33628;50.806;11.586;2023-02-11T12:14:42;25.40;;;14.98;;
47866;SDS011;33628;50.806;11.586;2023-02-11T12:17:18;27.23;;;15.18;;
47866;SDS011;33628;50.806;11.586;2023-02-11T12:19:54;23.95;;;14.38;;
47866;SDS011;33628;50.806;11.586;2023-02-11T12:22:33;28.17;;;15.70;;
47866;SDS011;33628;50.806;11.586;2023-02-11T12:25:20;26.83;;;15.80;;
47866;SDS011;33628;50.806;11.586;2023-02-11T12:27:54;28.38;;;14.68;;
47866;SDS011;33628;50.806;11.586;2023-02-11T12:30:42;27.23;;;15.00;;
47866;SDS011;33628;50.806;11.586;2023-02-11T12:33:20;26.08;;;15.02;;
47866;SDS011;33628;50.806;11.586;2023-02-11T12:35:57;25.58;;;15.10;;
47866;SDS011;33628;50.806;11.586;2023-02-11T12:38:44;24.17;;;14.75;;
47866;SDS011;33628;50.806;11.586;2023-02-11T12:41:23;27.38;;;16.33;;
47866;SDS011;33628;50.806;11.586;2023-02-11T12:44:19;24.92;;;14.60;;
47866;SDS011;33628;50.806;11.586;2023-02-11T12:46:51;30.13;;;15.43;;
47866;SDS011;33628;50.806;11.586;2023-02-11T12:49:28;26.55;;;15.55;;
47866;SDS011;33628;50.806;11.586;2023-02-11T12:54:48;28.65;;;14.75;;
47866;SDS011;33628;50.806;11.586;2023-02-11T12:57:20;27.45;;;15.35;;
47866;SDS011;33628;50.806;11.586;2023-02-11T12:59:50;27.27;;;16.38;;
47866;SDS011;33628;50.806;11.586;2023-02-11T13:02:23;26.05;;;15.15;;
47866;SDS011;33628;50.806;11.586;2023-02-11T13:04:54;25.58;;;14.02;;
47866;SDS011;33628;50.806;11.586;2023-02-11T13:07:25;28.17;;;16.30;;
47866;SDS011;33628;50.806;11.586;2023-02-11T13:09:56;29.42;;;16.17;;
47866;SDS011;33628;50.806;11.586;2023-02-11T13:12:26;26.85;;;15.38;;
47866;SDS011;33628;50.806;11.586;2023-02-11T13:15:14;27.98;;;14.73;;
47866;SDS011;33628;50.806;11.586;2023-02-11T13:17:42;27.63;;;15.60;;
47866;SDS011;33628;50.806;11.586;2023-02-11T13:20:17;30.50;;;15.82;;
47866;SDS011;33628;50.806;11.586;2023-02-11T13:22:52;25.65;;;15.70;;
47866;SDS011;33628;50.806;11.586;2023-02-11T13:25:27;28.42;;;15.48;;
47866;SDS011;33628;50.806;11.586;2023-02-11T13:28:02;28.90;;;15.45;;
47866;SDS011;33628;50.806;11.586;2023-02-11T13:30:34;25.45;;;15.13;;
47866;SDS011;33628;50.806;11.586;2023-02-11T13:33:05;25.15;;;13.90;;
47866;SDS011;33628;50.806;11.586;2023-02-11T13:35:43;25.25;;;14.80;;
47866;SDS011;33628;50.806;11.586;2023-02-11T13:40:57;24.88;;;14.48;;
47866;SDS011;33628;50.806;11.586;2023-02-11T13:43:27;24.35;;;14.00;;
47866;SDS011;33628;50.806;11.586;2023-02-11T13:45:56;26.88;;;14.77;;
47866;SDS011;33628;50.806;11.586;2023-02-11T13:48:25;28.40;;;15.07;;
47866;SDS011;33628;50.806;11.586;2023-02-11T13:50:56;28.15;;;15.00;;
47866;SDS011;33628;50.806;11.586;2023-02-11T13:53:24;27.15;;;15.80;;
47866;SDS011;33628;50.806;11.586;2023-02-11T13:55:53;24.92;;;14.38;;
47866;SDS011;33628;50.806;11.586;2023-02-11T13:58:35;27.73;;;15.40;;
47866;SDS011;33628;50.806;11.586;2023-02-11T14:01:05;24.00;;;14.30;;
47866;SDS011;33628;50.806;11.586;2023-02-11T14:03:33;24.42;;;14.25;;
47866;SDS011;33628;50.806;11.586;2023-02-11T14:06:24;28.42;;;16.10;;
47866;SDS011;33628;50.806;11.586;2023-02-11T14:09:35;29.95;;;17.08;;
47866;SDS011;33628;50.806;11.586;2023-02-11T14:15:19;26.80;;;15.68;;
47866;SDS011;33628;50.806;11.586;2023-02-11T14:17:50;28.02;;;16.48;;
47866;SDS011;33628;50.806;11.586;2023-02-11T14:23:20;30.35;;;18.00;;
47866;SDS011;33628;50.806;11.586;2023-02-11T14:25:52;29.52;;;15.85;;
47866;SDS011;33628;50.806;11.586;2023-02-11T14:28:34;25.98;;;15.25;;
47866;SDS011;33628;50.806;11.586;2023-02-11T14:31:04;31.67;;;17.08;;
47866;SDS011;33628;50.806;11.586;2023-02-11T14:33:42;28.38;;;15.77;;
47866;SDS011;33628;50.806;11.586;2023-02-11T14:36:26;28.75;;;15.38;;
47866;SDS011;33628;50.806;11.586;2023-02-11T14:41:44;26.73;;;14.20;;
47866;SDS011;33628;50.806;11.586;2023-02-11T14:44:13;26.70;;;14.70;;
47866;SDS011;33628;50.806;11.586;2023-02-11T14:46:44;25.40;;;14.23;;
47866;SDS011;33628;50.806;11.586;2023-02-11T14:49:15;24.80;;;14.15;;
47866;SDS011;33628;50.806;11.586;2023-02-11T14:51:47;21.27;;;12.82;;
47866;SDS011;33628;50.806;11.586;2023-02-11T14:54:14;23.83;;;14.23;;
47866;SDS011;33628;50.806;11.586;2023-02-11T14:56:43;26.42;;;14.85;;
47866;SDS011;33628;50.806;11.586;2023-02-11T14:59:12;23.73;;;13.98;;
47866;SDS011;33628;50.806;11.586;2023-02-11T15:01:47;24.35;;;14.85;;
47866;SDS011;33628;50.806;11.586;2023-02-11T15:04:22;25.50;;;14.73;;
47866;SDS011;33628;50.806;11.586;2023-02-11T15:06:49;23.08;;;14.15;;
47866;SDS011;33628;50.806;11.586;2023-02-11T15:09:16;28.00;;;16.75;;
47866;SDS011;33628;50.806;11.586;2023-02-11T15:11:45;30.23;;;15.35;;
47866;SDS011;33628;50.806;11.586;2023-02-11T15:14:15;25.50;;;14.40;;
47866;SDS011;33628;50.806;11.586;2023-02-11T15:16:45;23.15;;;12.75;;
47866;SDS011;33628;50.806;11.586;2023-02-11T15:19:17;23.58;;;11.77;;